Time;durP1;ratioP1;P1;durP2;ratioP2;P2;SDS_P1;SDS_P2;PMS_P1;PMS_P2;Temp;Humidity;BMP_temperature;BMP_pressure;BME280_temperature;BME280_humidity;BME280_pressure;Samples;Min_cycle;Max_cycle;Signal;HPM_P1;HPM_P2
2022/04/29 00:00:42;;;;;;;6.82;4.00;;;8.50;99.90;;;7.94;94.78;98236.88;4987398;28;20368;-38
2022/04/29 00:03:10;;;;;;;6.45;4.20;;;8.40;99.90;;;7.88;95.71;98236.97;4985844;28;20555;-38
2022/04/29 00:05:37;;;;;;;6.30;4.15;;;8.40;99.90;;;7.82;96.62;98232.69;4982651;28;20038;-38
2022/04/29 00:08:05;;;;;;;7.35;4.20;;;8.30;99.90;;;7.71;96.56;98229.28;4981327;28;20044;-38
2022/04/29 00:10:32;;;;;;;6.50;4.47;;;8.30;99.90;;;7.72;97.15;98231.03;4983912;28;20505;-38
2022/04/29 00:13:01;;;;;;;5.53;4.28;;;8.20;99.90;;;7.67;97.62;98224.13;4983786;28;20030;-38
2022/04/29 00:15:28;;;;;;;6.90;4.25;;;8.10;99.90;;;7.62;98.03;98226.78;4986738;28;20168;-38
2022/04/29 00:17:54;;;;;;;7.15;4.18;;;8.10;99.90;;;7.55;98.11;98220.72;4982603;28;20336;-38
2022/04/29 00:20:20;;;;;;;5.82;4.32;;;8.10;99.90;;;7.56;97.45;98222.47;4985554;28;20900;-38
2022/04/29 00:22:46;;;;;;;5.22;4.20;;;8.00;99.90;;;7.60;95.99;98220.69;4989332;28;20030;-38
2022/04/29 00:25:12;;;;;;;5.85;4.30;;;8.10;99.90;;;7.64;95.12;98219.75;4987359;28;20038;-38
2022/04/29 00:27:40;;;;;;;7.28;4.93;;;8.10;99.90;;;7.64;96.00;98222.38;4985874;28;20049;-38
2022/04/29 00:30:08;;;;;;;5.65;4.32;;;8.10;99.90;;;7.64;95.38;98215.41;4992346;28;20085;-38
2022/04/29 00:32:35;;;;;;;5.75;4.22;;;8.10;99.90;;;7.70;95.66;98218.81;4986435;28;20112;-38
2022/04/29 00:35:01;;;;;;;5.63;4.38;;;8.10;99.90;;;7.65;96.14;98211.88;4987466;28;20068;-38
2022/04/29 00:37:26;;;;;;;5.53;4.53;;;8.10;99.90;;;7.50;96.28;98195.44;4993974;28;20026;-38
2022/04/29 00:39:52;;;;;;;5.70;4.55;;;8.10;99.90;;;7.51;95.79;98191.94;4995974;28;20864;-38
2022/04/29 00:42:23;;;;;;;5.72;4.35;;;8.10;99.90;;;7.55;95.21;98188.38;4992827;28;20061;-38
2022/04/29 00:44:49;;;;;;;5.60;4.30;;;8.10;99.90;;;7.63;93.94;98197.03;4991824;28;20145;-38
2022/04/29 00:47:20;;;;;;;7.38;4.35;;;8.10;99.90;;;7.66;93.30;98189.09;4995239;28;20038;-38
2022/04/29 00:49:48;;;;;;;5.78;4.35;;;8.10;99.90;;;7.62;94.19;98184.78;4998945;28;20461;-38
2022/04/29 00:52:18;;;;;;;6.18;4.18;;;8.10;99.90;;;7.61;94.18;98190.94;4995869;28;20478;-38
2022/04/29 00:54:50;;;;;;;6.80;4.65;;;8.10;99.90;;;7.60;94.43;98191.81;4997583;28;20044;-38
2022/04/29 00:57:25;;;;;;;6.13;4.63;;;8.10;99.90;;;7.59;94.59;98187.44;4994514;28;20034;-38
2022/04/29 01:00:03;;;;;;;4.50;3.92;;;8.10;99.90;;;7.54;95.24;98184.88;4997504;28;20069;-38
2022/04/29 01:02:29;;;;;;;5.95;4.78;;;8.00;99.90;;;7.52;95.29;98196.28;4993558;28;20100;-38
2022/04/29 01:05:05;;;;;;;7.63;4.95;;;8.00;99.90;;;7.46;96.18;98189.34;5018189;28;20500;-38
2022/04/29 01:07:34;;;;;;;5.95;4.88;;;8.00;99.90;;;7.43;96.67;98198.13;4995605;28;20038;-37
2022/04/29 01:09:59;;;;;;;6.40;4.40;;;7.90;99.90;;;7.40;97.56;98195.53;4994882;28;20034;-38
2022/04/29 01:12:28;;;;;;;8.30;4.65;;;7.90;99.90;;;7.34;98.41;98182.50;4989839;28;20029;-38
2022/04/29 01:14:56;;;;;;;7.05;4.82;;;7.80;99.90;;;7.31;99.44;98185.16;4997100;28;20030;-38
2022/04/29 01:17:22;;;;;;;6.05;5.00;;;7.80;99.90;;;7.22;100.00;98175.63;4995496;28;20038;-38
2022/04/29 01:19:48;;;;;;;7.63;4.88;;;7.70;99.90;;;7.16;100.00;98165.22;4992190;28;20030;-38
2022/04/29 01:22:14;;;;;;;8.18;4.50;;;7.70;99.90;;;7.11;100.00;98164.38;4996430;28;20041;-38
2022/04/29 01:24:39;;;;;;;5.82;5.00;;;7.60;99.90;;;7.08;100.00;98165.28;4994324;28;20541;-38
2022/04/29 01:27:10;;;;;;;8.60;5.05;;;7.60;99.90;;;7.05;100.00;98161.81;4995579;28;20026;-38
2022/04/29 01:29:42;;;;;;;6.75;5.57;;;7.60;99.90;;;7.12;100.00;98162.63;4995589;28;20041;-38
2022/04/29 01:32:09;;;;;;;6.63;4.88;;;7.60;99.90;;;7.17;100.00;98160.81;4997716;28;20124;-38
2022/04/29 01:34:36;;;;;;;6.70;5.80;;;7.60;99.90;;;7.16;100.00;98148.56;5014640;28;20029;-38
2022/04/29 01:37:04;;;;;;;7.65;5.13;;;7.60;99.90;;;7.17;100.00;98160.81;4992053;28;20029;-38
2022/04/29 01:39:30;;;;;;;7.35;5.25;;;7.60;99.90;;;7.14;100.00;98156.50;4995659;28;20038;-38
2022/04/29 01:41:55;;;;;;;6.68;4.75;;;7.60;99.90;;;7.12;100.00;98153.00;4992956;28;20076;-38
2022/04/29 01:44:21;;;;;;;6.78;5.20;;;7.60;99.90;;;7.11;100.00;98153.91;4993517;28;20038;-38
2022/04/29 01:46:47;;;;;;;5.90;5.05;;;7.60;99.90;;;7.06;100.00;98151.31;4995469;28;20041;-38
2022/04/29 01:49:15;;;;;;;7.05;4.72;;;7.60;99.90;;;7.07;100.00;98154.81;4994036;28;20037;-38
2022/04/29 01:51:41;;;;;;;6.35;4.82;;;7.60;99.90;;;7.03;100.00;98164.47;4993060;28;20037;-38
2022/04/29 01:54:10;;;;;;;7.47;5.07;;;7.60;99.90;;;7.00;100.00;98167.13;4997193;28;20025;-38
2022/04/29 01:56:38;;;;;;;6.30;4.85;;;7.50;99.90;;;6.97;100.00;98168.91;4994413;28;20030;-38
2022/04/29 01:59:05;;;;;;;6.40;5.18;;;7.50;99.90;;;6.85;100.00;98155.00;4993561;28;20253;-38
2022/04/29 02:01:31;;;;;;;6.28;5.03;;;7.40;99.90;;;6.84;100.00;98166.41;4992494;28;20076;-38
2022/04/29 02:03:58;;;;;;;7.57;5.32;;;7.40;99.90;;;6.76;100.00;98154.25;4996571;28;20462;-38
2022/04/29 02:06:25;;;;;;;6.72;5.25;;;7.30;99.90;;;6.75;100.00;98171.75;4996915;28;20044;-38
2022/04/29 02:08:50;;;;;;;6.38;4.88;;;7.30;99.90;;;6.71;100.00;98159.53;4987310;28;20307;-38
2022/04/29 02:11:17;;;;;;;7.35;5.18;;;7.20;99.90;;;6.69;100.00;98153.44;4991057;28;20037;-38
2022/04/29 02:13:47;;;;;;;8.98;5.13;;;7.20;99.90;;;6.70;100.00;98165.66;4987662;28;20058;-38
2022/04/29 02:16:14;;;;;;;5.97;4.90;;;7.20;99.90;;;6.68;100.00;98155.19;4996992;28;20033;-38
2022/04/29 02:18:40;;;;;;;5.55;4.60;;;7.20;99.90;;;6.66;100.00;98154.34;4993666;28;20490;-38
2022/04/29 02:21:07;;;;;;;6.93;5.35;;;7.20;99.90;;;6.60;100.00;98145.66;4990782;28;20030;-37
2022/04/29 02:23:32;;;;;;;7.32;5.65;;;7.20;99.90;;;6.63;100.00;98151.75;4993374;28;20486;-38
2022/04/29 02:25:58;;;;;;;9.75;5.20;;;7.20;99.90;;;6.57;100.00;98143.94;4995061;28;20045;-38
2022/04/29 02:28:24;;;;;;;6.72;5.78;;;7.20;99.90;;;6.62;100.00;98143.88;4987996;28;20546;-38
2022/04/29 02:30:50;;;;;;;7.32;5.70;;;7.20;99.90;;;6.60;100.00;98140.41;5010968;28;20026;-38
2022/04/29 02:33:16;;;;;;;8.15;5.85;;;7.10;99.90;;;6.58;100.00;98140.41;4994457;28;20107;-38
2022/04/29 02:35:42;;;;;;;6.22;5.30;;;7.10;99.90;;;6.58;100.00;98129.94;4994503;28;20449;-38
2022/04/29 02:38:07;;;;;;;9.63;6.25;;;7.10;99.90;;;6.56;100.00;98130.84;4983475;28;20052;-38
2022/04/29 02:40:33;;;;;;;7.32;5.28;;;7.10;99.90;;;6.50;100.00;98132.63;4988076;28;20038;-38
2022/04/29 02:42:59;;;;;;;7.88;5.78;;;7.10;99.90;;;6.47;100.00;98130.03;4991005;28;20132;-38
2022/04/29 02:45:25;;;;;;;6.60;5.60;;;7.00;99.90;;;6.45;100.00;98134.44;4992632;28;20045;-38
2022/04/29 02:47:50;;;;;;;7.50;5.65;;;7.00;99.90;;;6.43;100.00;98135.34;4992185;28;20761;-38
2022/04/29 02:50:16;;;;;;;6.13;5.30;;;7.00;99.90;;;6.39;100.00;98130.97;4994892;28;20058;-38
2022/04/29 02:52:42;;;;;;;7.57;5.68;;;6.90;99.90;;;6.34;100.00;98131.03;4991356;28;20038;-37
2022/04/29 02:55:08;;;;;;;7.45;5.57;;;6.90;99.90;;;6.33;100.00;98136.28;4993719;28;20026;-38
2022/04/29 02:57:34;;;;;;;7.90;5.55;;;6.80;99.90;;;6.30;100.00;98119.72;4994188;28;20048;-37
2022/04/29 03:00:00;;;;;;;6.28;5.38;;;6.80;99.90;;;6.30;100.00;98126.72;4996266;28;21036;-38
2022/04/29 03:02:26;;;;;;;6.70;5.40;;;6.80;99.90;;;6.26;100.00;98120.63;4993122;28;20037;-37
2022/04/29 03:04:52;;;;;;;7.13;5.25;;;6.80;99.90;;;6.20;100.00;98109.31;4996168;28;20034;-38
2022/04/29 03:07:17;;;;;;;7.43;5.63;;;6.80;99.90;;;6.17;100.00;98110.19;4997446;28;20030;-37
2022/04/29 03:09:43;;;;;;;9.82;5.35;;;6.80;99.90;;;6.23;100.00;98115.41;4992904;28;20536;-37
2022/04/29 03:12:12;;;;;;;7.82;5.47;;;6.80;99.90;;;6.23;100.00;98112.78;4991512;28;20311;-37
2022/04/29 03:14:38;;;;;;;8.25;5.47;;;6.80;99.90;;;6.23;100.00;98119.78;4990457;28;20038;-38
2022/04/29 03:17:05;;;;;;;7.60;5.55;;;6.80;99.90;;;6.18;100.00;98117.19;4991795;28;20042;-38
2022/04/29 03:19:30;;;;;;;8.43;5.68;;;6.80;99.90;;;6.22;100.00;98116.28;4981225;28;20045;-38
2022/04/29 03:21:56;;;;;;;7.55;5.35;;;6.80;99.90;;;6.22;100.00;98116.28;4991065;28;20379;-38
2022/04/29 03:24:22;;;;;;;7.13;6.00;;;6.80;99.90;;;6.20;100.00;98111.94;4995288;28;20116;-38
2022/04/29 03:26:48;;;;;;;7.85;5.95;;;6.80;99.90;;;6.13;100.00;98095.41;4994769;28;21046;-38
2022/04/29 03:29:14;;;;;;;6.85;5.30;;;6.70;99.90;;;6.17;100.00;98102.34;4992486;28;20124;-38
2022/04/29 03:31:40;;;;;;;7.03;5.38;;;6.70;99.90;;;6.15;100.00;98098.88;4989388;28;20452;-38
2022/04/29 03:34:05;;;;;;;7.15;5.45;;;6.70;99.90;;;6.17;100.00;98106.72;4991508;28;20132;-37
2022/04/29 03:36:31;;;;;;;8.13;5.75;;;6.70;99.90;;;6.17;100.00;98102.34;4995995;28;20405;-38
2022/04/29 03:38:57;;;;;;;7.47;5.63;;;6.70;99.90;;;6.16;100.00;98105.88;5006654;28;20116;-38
2022/04/29 03:41:23;;;;;;;7.90;6.03;;;6.70;99.90;;;6.14;100.00;98099.78;4994579;28;20132;-38
2022/04/29 03:43:49;;;;;;;7.88;6.00;;;6.70;99.90;;;6.11;100.00;98099.78;4992215;28;20049;-38
2022/04/29 03:46:15;;;;;;;7.20;5.50;;;6.70;99.90;;;6.11;100.00;98099.78;4994121;28;20038;-38
2022/04/29 03:51:25;;;;;;;7.40;5.43;;;6.60;99.90;;;6.05;100.00;98097.22;4990080;28;20501;-38
2022/04/29 03:53:51;;;;;;;7.68;6.32;;;6.60;99.90;;;6.05;100.00;98102.47;4986323;28;20029;-38
2022/04/29 03:56:18;;;;;;;8.40;5.70;;;6.60;99.90;;;6.05;100.00;98102.47;4986888;28;20403;-38
2022/04/29 03:58:44;;;;;;;8.30;6.00;;;6.60;99.90;;;6.03;100.00;98098.97;4987317;28;20033;-38
2022/04/29 04:01:12;;;;;;;7.45;5.75;;;6.60;99.90;;;6.01;100.00;98100.72;4989393;28;20501;-38
2022/04/29 04:03:39;;;;;;;8.27;6.20;;;6.60;99.90;;;6.01;100.00;98098.09;4994460;28;20026;-38
2022/04/29 04:08:49;;;;;;;7.35;5.80;;;6.50;99.90;;;5.98;100.00;98103.41;4983884;28;20069;-38
2022/04/29 04:11:14;;;;;;;8.60;6.13;;;6.50;99.90;;;5.98;100.00;98108.63;4996050;28;20472;-37
2022/04/29 04:13:40;;;;;;;12.20;6.78;;;6.50;99.90;;;5.93;100.00;98101.63;4998020;28;20086;-38
2022/04/29 04:16:06;;;;;;;9.07;5.88;;;6.50;99.90;;;5.93;100.00;98109.47;4980781;28;20403;-38
2022/04/29 04:18:32;;;;;;;8.50;6.28;;;6.50;99.90;;;5.88;100.00;98100.78;4994431;28;20065;-38
2022/04/29 04:20:57;;;;;;;7.43;6.30;;;6.50;99.90;;;5.92;100.00;98105.13;4996701;28;20037;-38
2022/04/29 04:23:23;;;;;;;9.15;6.45;;;6.50;99.90;;;5.93;100.00;98106.84;4991823;28;20088;-38
2022/04/29 04:25:50;;;;;;;8.00;6.00;;;6.50;99.90;;;5.89;100.00;98105.16;4996991;28;20499;-38
2022/04/29 04:28:16;;;;;;;7.88;6.22;;;6.50;99.90;;;5.95;100.00;98111.22;4997957;28;20036;-38
2022/04/29 04:30:42;;;;;;;8.02;6.32;;;6.50;99.90;;;6.02;100.00;98120.81;4987954;28;20038;-38
2022/04/29 04:33:07;;;;;;;9.25;6.20;;;6.60;99.90;;;6.03;100.00;98122.53;4991989;28;20441;-37
2022/04/29 04:35:33;;;;;;;9.70;6.05;;;6.60;99.90;;;6.09;100.00;98125.13;4990563;28;20043;-38
2022/04/29 04:37:58;;;;;;;8.63;5.93;;;6.60;99.90;;;6.07;100.00;98125.13;4993575;28;20489;-38
2022/04/29 04:40:24;;;;;;;8.52;6.18;;;6.70;99.90;;;6.20;100.00;98138.13;4989818;28;20053;-38
2022/04/29 04:42:50;;;;;;;7.18;6.00;;;6.70;99.90;;;6.27;100.00;98140.69;4995469;28;20520;-38
2022/04/29 04:45:16;;;;;;;7.07;6.00;;;6.80;99.90;;;6.34;100.00;98138.03;4993893;28;20097;-38
2022/04/29 04:47:41;;;;;;;7.10;5.90;;;6.90;99.90;;;6.38;100.00;98124.03;4993328;28;20034;-38
2022/04/29 04:50:07;;;;;;;8.07;6.10;;;6.90;99.90;;;6.52;100.00;98131.78;5039076;22;20106;-62
2022/04/29 04:52:33;;;;;;;11.38;6.53;;;7.10;99.90;;;6.63;100.00;98136.00;5035765;28;20033;-63
2022/04/29 04:55:04;;;;;;;8.52;6.35;;;7.10;99.90;;;6.73;100.00;98134.19;5040830;28;20234;-63
2022/04/29 04:57:30;;;;;;;8.57;5.93;;;7.30;99.90;;;6.86;100.00;98132.31;5040159;28;20017;-63
2022/04/29 04:59:56;;;;;;;7.68;6.20;;;7.30;99.90;;;6.96;100.00;98133.91;5041449;28;20032;-64
2022/04/29 05:02:22;;;;;;;13.65;6.97;;;7.50;99.90;;;7.11;100.00;98137.28;5038637;28;20036;-63
2022/04/29 05:04:47;;;;;;;9.93;6.57;;;7.60;99.90;;;7.22;100.00;98130.16;5039481;28;20032;-63
2022/04/29 05:07:13;;;;;;;8.23;5.78;;;7.70;99.90;;;7.30;100.00;98133.53;5036646;28;20037;-63
2022/04/29 05:09:39;;;;;;;8.15;6.50;;;7.80;99.90;;;7.44;100.00;98138.63;5040678;28;20395;-64
2022/04/29 05:12:05;;;;;;;7.68;6.70;;;8.00;99.90;;;7.52;100.00;98135.91;5038715;28;20033;-64
2022/04/29 05:14:31;;;;;;;9.23;7.05;;;8.00;99.90;;;7.62;100.00;98140.16;5041221;28;20086;-63
2022/04/29 05:16:56;;;;;;;10.85;7.25;;;8.10;99.90;;;7.71;100.00;98142.66;5036387;28;20021;-63
2022/04/29 05:19:22;;;;;;;8.70;6.97;;;8.20;99.90;;;7.79;100.00;98146.06;5028313;28;20033;-63
2022/04/29 05:21:48;;;;;;;7.85;6.55;;;8.30;99.90;;;7.87;100.00;98148.56;5034667;28;20036;-63
2022/04/29 05:24:13;;;;;;;9.32;7.00;;;8.40;99.90;;;7.96;100.00;98148.41;5041650;28;20036;-63
2022/04/29 05:26:39;;;;;;;12.38;6.88;;;8.50;99.90;;;8.05;100.00;98152.69;5039932;28;20354;-63
2022/04/29 05:29:05;;;;;;;11.30;6.60;;;8.60;99.90;;;8.16;100.00;98158.63;5039958;28;20033;-63
2022/04/29 05:31:31;;;;;;;9.18;6.38;;;8.70;99.90;;;8.22;100.00;98161.19;5037319;28;20029;-64
2022/04/29 05:33:57;;;;;;;7.25;6.00;;;8.70;99.90;;;8.31;100.00;98157.53;5024713;28;20104;-64
2022/04/29 05:36:23;;;;;;;6.88;6.05;;;8.80;99.90;;;8.41;100.00;98155.63;5034592;28;20576;-64
2022/04/29 05:44:17;;;;;;;11.43;7.72;;;9.10;99.90;;;8.74;100.00;98158.59;5029779;28;20123;-63
2022/04/29 05:46:42;;;;;;;9.02;6.63;;;9.20;99.90;;;8.83;100.00;98161.09;5033310;28;20028;-63
2022/04/29 05:49:08;;;;;;;11.65;7.65;;;9.30;99.90;;;8.88;100.00;98161.91;5035499;28;20040;-64
2022/04/29 05:51:34;;;;;;;10.70;6.53;;;9.40;99.90;;;8.97;100.00;98166.97;5036725;28;20117;-64
2022/04/29 05:54:00;;;;;;;9.35;6.60;;;9.40;99.90;;;9.05;100.00;98168.59;5036614;28;20064;-64
2022/04/29 05:56:29;;;;;;;8.88;6.60;;;9.50;99.90;;;9.15;99.44;98167.50;5036750;28;20033;-64
2022/04/29 05:58:55;;;;;;;7.95;5.50;;;9.60;99.90;;;9.29;99.63;98165.47;5035816;28;20036;-64
2022/04/29 06:01:21;;;;;;;8.15;6.15;;;9.70;99.90;;;9.42;99.21;98170.50;5035115;28;20052;-64
2022/04/29 06:03:47;;;;;;;9.63;7.00;;;9.90;99.90;;;9.56;97.93;98176.38;5033521;28;20041;-64
2022/04/29 06:06:13;;;;;;;8.55;6.60;;;10.00;99.90;;;9.71;97.22;98176.06;5037877;28;20039;-64
2022/04/29 06:08:39;;;;;;;8.13;6.55;;;10.20;99.90;;;9.90;96.55;98173.03;5032138;28;20045;-63
2022/04/29 06:11:04;;;;;;;11.43;7.50;;;10.30;99.90;;;10.09;94.57;98166.44;5038805;28;20374;-63
2022/04/29 06:13:30;;;;;;;9.75;7.35;;;10.50;99.90;;;10.28;92.77;98172.16;5036162;28;20036;-63
2022/04/29 06:15:56;;;;;;;12.68;8.13;;;10.80;99.90;;;10.41;88.50;98164.88;5034410;28;20111;-64
2022/04/29 06:18:21;;;;;;;11.20;8.10;;;10.90;99.90;;;10.48;86.53;98170.84;5038511;28;20036;-63
2022/04/29 06:20:47;;;;;;;11.35;7.00;;;11.00;99.90;;;10.60;86.86;98167.91;5036752;28;21633;-64
2022/04/29 06:23:13;;;;;;;8.55;6.82;;;11.10;99.90;;;10.72;85.70;98172.00;5034428;28;20439;-63
2022/04/29 06:25:39;;;;;;;10.68;7.07;;;11.20;99.90;;;10.85;84.94;98178.69;5026436;28;20124;-64
2022/04/29 06:28:04;;;;;;;8.23;6.15;;;11.30;99.90;;;11.01;84.69;98171.25;5038006;28;20041;-63
2022/04/29 06:30:30;;;;;;;9.57;5.78;;;11.50;99.90;;;11.15;86.67;98183.25;5032208;28;20082;-63
2022/04/29 06:32:56;;;;;;;10.27;5.10;;;11.60;99.90;;;11.27;89.38;98178.50;5035756;28;20033;-64
2022/04/29 06:35:22;;;;;;;6.57;5.05;;;11.80;99.90;;;11.38;86.89;98183.47;5034183;28;20166;-64
2022/04/29 06:37:47;;;;;;;9.35;5.25;;;11.90;99.90;;;11.54;85.92;98183.91;5034766;28;20051;-63
2022/04/29 06:40:13;;;;;;;7.18;5.20;;;12.00;99.90;;;11.75;84.94;98186.84;5036633;28;20482;-63
2022/04/29 06:42:46;;;;;;;10.25;5.63;;;12.20;99.90;;;11.97;81.70;98192.38;5036333;28;20506;-63
2022/04/29 06:45:13;;;;;;;9.25;5.57;;;12.40;99.90;;;12.24;80.99;98185.41;5013067;28;20171;-63
2022/04/29 06:47:39;;;;;;;7.57;5.20;;;12.60;99.90;;;12.52;79.69;98184.53;5035584;28;20025;-64
2022/04/29 06:50:06;;;;;;;11.65;6.55;;;12.90;99.90;;;12.83;77.09;98189.69;5038046;28;20067;-64
2022/04/29 06:52:32;;;;;;;13.77;8.95;;;13.30;99.90;;;13.06;72.78;98194.19;5030400;28;20072;-64
2022/04/29 06:54:57;;;;;;;11.63;7.85;;;13.60;99.90;;;13.39;72.57;98190.44;5020893;28;20024;-64
2022/04/29 06:57:23;;;;;;;10.90;7.95;;;13.90;99.90;;;13.65;69.93;98190.38;5027214;28;20452;-64
2022/04/29 06:59:51;;;;;;;12.23;7.40;;;14.10;99.90;;;13.99;67.42;98188.25;5036611;28;20052;-64
2022/04/29 07:02:17;;;;;;;10.23;7.03;;;14.40;99.90;;;14.27;63.26;98178.28;5028311;28;20037;-64
2022/04/29 07:04:43;;;;;;;10.55;6.97;;;14.70;99.90;;;14.55;61.46;98178.97;5029101;28;20102;-64
2022/04/29 07:07:11;;;;;;;11.07;7.28;;;14.90;99.90;;;14.66;57.61;98184.75;5031982;28;20575;-64
2022/04/29 07:09:40;;;;;;;13.70;7.18;;;15.00;99.90;;;14.74;59.51;98171.16;5032797;28;20524;-65
2022/04/29 07:12:08;;;;;;;10.45;6.57;;;15.10;99.90;;;14.85;59.77;98182.19;5028668;28;20025;-65
2022/04/29 07:14:34;;;;;;;17.90;7.63;;;15.20;99.90;;;14.80;58.64;98157.63;5027051;28;20036;-64
2022/04/29 07:17:00;;;;;;;11.80;7.25;;;15.30;99.90;;;14.87;56.63;98167.91;5033171;28;20254;-64
2022/04/29 07:19:26;;;;;;;11.20;6.20;;;15.20;99.90;;;14.89;55.83;98165.19;5033248;28;20032;-61
2022/04/29 07:21:52;;;;;;;9.50;6.18;;;15.20;99.90;;;14.98;56.09;98171.91;5032116;28;20134;-63
2022/04/29 07:24:18;;;;;;;9.35;5.32;;;15.30;99.90;;;15.07;56.52;98161.78;5030682;28;20682;-63
2022/04/29 07:26:44;;;;;;;8.40;5.28;;;15.50;99.90;;;15.21;55.70;98163.81;5029135;28;20029;-63
2022/04/29 07:29:10;;;;;;;7.80;5.63;;;15.50;99.90;;;15.27;53.41;98165.34;5038363;28;20033;-63
2022/04/29 07:31:36;;;;;;;9.60;5.78;;;15.60;99.90;;;15.31;51.25;98166.06;5032558;28;20702;-63
2022/04/29 07:34:02;;;;;;;6.53;5.03;;;15.70;99.10;;;15.39;51.57;98156.84;5028856;28;20630;-63
2022/04/29 07:41:56;;;;;;;9.50;6.60;;;15.90;97.00;;;15.58;49.17;98148.06;5038072;28;20107;-64
2022/04/29 07:44:22;;;;;;;9.15;5.85;;;15.90;96.40;;;15.68;51.42;98153.81;5034401;28;20129;-64
2022/04/29 07:46:49;;;;;;;9.90;4.75;;;15.90;97.20;;;15.79;51.48;98156.84;5034139;28;20041;-63
2022/04/29 07:49:15;;;;;;;8.05;5.78;;;16.00;97.40;;;15.79;49.92;98156.84;5018879;28;20988;-62
2022/04/29 07:51:42;;;;;;;8.65;5.50;;;16.10;96.40;;;15.71;49.93;98135.06;5036131;28;20036;-62
2022/04/29 07:54:08;;;;;;;7.25;5.85;;;16.00;96.10;;;15.67;48.44;98168.91;5032755;28;20028;-61
2022/04/29 07:56:34;;;;;;;7.32;5.30;;;15.90;94.80;;;15.49;49.28;98159.06;5035763;28;20119;-63
2022/04/29 07:59:00;;;;;;;9.15;6.00;;;15.70;95.20;;;15.31;49.59;98161.63;5036821;28;20036;-63
2022/04/29 08:01:26;;;;;;;8.32;6.30;;;15.50;95.40;;;15.03;48.98;98156.66;5036749;28;20094;-63
2022/04/29 08:03:53;;;;;;;9.15;6.10;;;15.30;94.80;;;14.74;50.10;98147.28;5033783;28;20542;-63
2022/04/29 08:06:20;;;;;;;8.07;5.57;;;15.00;95.00;;;14.45;51.12;98149.31;5030632;28;20060;-63
2022/04/29 08:08:46;;;;;;;10.45;5.65;;;14.70;95.50;;;14.22;51.87;98153.72;5033114;28;20041;-63
2022/04/29 08:11:12;;;;;;;10.25;6.25;;;14.50;96.10;;;13.99;52.21;98157.28;5035462;28;20028;-63
2022/04/29 08:13:38;;;;;;;12.13;6.00;;;14.30;96.20;;;13.77;55.79;98157.25;5030177;28;20036;-63
2022/04/29 08:16:05;;;;;;;7.35;5.85;;;14.10;97.90;;;13.71;55.20;98158.34;5035768;28;20344;-62
2022/04/29 08:18:31;;;;;;;8.02;5.65;;;14.10;97.80;;;13.72;55.36;98160.06;5034613;28;20032;-62
2022/04/29 08:20:57;;;;;;;10.38;5.55;;;14.10;97.90;;;13.83;55.49;98162.31;5034389;28;20025;-63
2022/04/29 08:23:23;;;;;;;8.80;6.43;;;14.10;98.00;;;13.99;56.28;98151.97;5033236;28;20044;-62
2022/04/29 08:25:49;;;;;;;9.95;6.38;;;14.30;98.50;;;14.07;53.93;98154.34;5029187;28;20048;-62
2022/04/29 08:28:15;;;;;;;9.90;5.70;;;14.40;97.30;;;14.27;54.24;98162.38;5035693;28;20345;-63
2022/04/29 08:30:41;;;;;;;8.93;5.55;;;14.60;97.40;;;14.55;53.56;98163.91;5035123;28;20543;-63
2022/04/29 08:33:15;;;;;;;8.63;5.93;;;14.90;97.40;;;14.83;50.42;98161.00;5032735;28;20032;-63
2022/04/29 08:35:41;;;;;;;15.60;6.90;;;15.10;96.00;;;15.04;48.04;98158.41;5029016;28;20627;-63
2022/04/29 08:38:10;;;;;;;11.75;6.05;;;15.40;94.00;;;15.23;47.55;98156.63;5035156;28;20033;-63
2022/04/29 08:40:43;;;;;;;13.13;6.28;;;15.60;93.20;;;15.45;46.60;98156.56;5026670;28;20391;-64
2022/04/29 08:43:14;;;;;;;10.45;6.35;;;15.80;92.30;;;15.61;45.56;98155.88;5031503;28;20048;-63
2022/04/29 08:45:41;;;;;;;9.80;6.03;;;16.00;91.60;;;15.84;47.05;98150.41;5029837;28;20600;-64
2022/04/29 08:48:08;;;;;;;13.07;6.88;;;16.20;92.30;;;15.92;46.29;98151.84;5030695;28;20036;-64
2022/04/29 08:50:34;;;;;;;11.50;7.32;;;16.30;91.70;;;16.02;44.76;98143.38;5032744;28;20413;-64
2022/04/29 08:53:00;;;;;;;11.52;5.97;;;16.50;91.00;;;16.25;45.69;98144.06;5030438;28;20148;-62
2022/04/29 09:01:03;;;;;;;8.85;5.85;;;16.90;90.10;;;16.78;44.62;98143.22;5030148;28;20048;-62
2022/04/29 09:03:29;;;;;;;8.02;5.82;;;17.10;90.10;;;16.88;44.86;98140.97;5026900;28;20036;-63
2022/04/29 09:05:55;;;;;;;9.02;5.90;;;17.20;89.40;;;16.97;44.84;98143.16;5032412;28;20041;-60
2022/04/29 09:08:23;;;;;;;8.90;5.80;;;17.40;90.20;;;17.04;43.08;98137.53;5031920;28;20178;-62
2022/04/29 09:11:00;;;;;;;8.90;5.55;;;17.50;86.50;;;17.12;43.28;98124.66;5028670;28;20072;-63
2022/04/29 09:13:31;;;;;;;8.27;5.38;;;17.60;85.90;;;17.25;41.98;98122.25;5031005;28;20024;-62
2022/04/29 09:16:12;;;;;;;7.72;5.53;;;17.70;84.80;;;17.51;42.17;98126.19;5016421;28;20033;-63
2022/04/29 09:18:53;;;;;;;6.30;4.43;;;17.90;84.60;;;17.68;39.71;98123.47;5036127;28;20526;-62
2022/04/29 09:21:30;;;;;;;7.15;4.57;;;18.10;80.80;;;17.89;39.94;98117.94;5038639;28;20908;-62
2022/04/29 09:23:59;;;;;;;6.47;4.40;;;18.20;80.00;;;18.07;41.75;98119.59;5036153;28;20565;-63
2022/04/29 09:26:35;;;;;;;6.85;4.65;;;18.50;81.70;;;18.20;38.75;98111.75;5037909;28;20033;-63
2022/04/29 09:29:16;;;;;;;7.70;5.32;;;18.60;77.40;;;18.24;38.59;98120.44;5036487;28;20053;-63
2022/04/29 09:31:59;;;;;;;5.70;4.57;;;18.80;74.20;;;18.43;39.37;98105.09;5026498;28;20436;-63
2022/04/29 09:34:43;;;;;;;7.88;4.50;;;18.90;76.60;;;18.62;40.72;98104.88;5034144;28;20033;-61
2022/04/29 09:37:20;;;;;;;8.55;4.63;;;19.10;78.20;;;18.91;39.17;98110.34;5039958;28;20473;-60
2022/04/29 09:39:54;;;;;;;8.13;5.20;;;19.50;76.30;;;19.10;39.00;98110.13;5038073;28;21557;-61
2022/04/29 09:42:20;;;;;;;6.18;4.60;;;19.70;75.30;;;19.41;36.75;98111.75;5038759;28;20473;-61
2022/04/29 09:44:46;;;;;;;6.78;4.75;;;19.80;70.80;;;19.46;37.12;98101.66;5034739;28;20061;-61
2022/04/29 09:47:20;;;;;;;9.50;4.88;;;19.90;71.10;;;19.55;36.77;98089.53;5035956;28;20040;-60
2022/04/29 09:49:58;;;;;;;8.05;4.57;;;20.00;68.50;;;19.52;38.42;98100.41;5025772;28;20045;-61
2022/04/29 09:52:26;;;;;;;6.15;4.28;;;20.00;71.30;;;19.59;36.62;98098.22;5037795;28;20060;-61
2022/04/29 09:54:53;;;;;;;7.90;5.47;;;20.10;69.80;;;19.60;36.85;98094.59;5035833;28;20262;-61
2022/04/29 09:57:24;;;;;;;9.65;5.28;;;20.10;68.70;;;19.50;38.08;98093.44;5036931;28;20036;-61
2022/04/29 09:59:55;;;;;;;8.43;5.13;;;20.00;70.20;;;19.42;39.06;98080.56;5039047;28;20185;-61
2022/04/29 10:02:24;;;;;;;6.65;4.78;;;20.00;70.70;;;19.37;38.91;98083.50;5037492;28;20056;-61
2022/04/29 10:04:53;;;;;;;8.60;5.47;;;19.90;71.40;;;19.31;38.19;98083.00;5034885;28;20064;-61
2022/04/29 10:07:21;;;;;;;8.40;4.45;;;19.80;70.50;;;19.28;37.93;98078.72;5033159;28;20029;-61
2022/04/29 10:09:50;;;;;;;8.30;4.50;;;19.70;69.20;;;18.86;35.73;98073.22;5029331;28;20103;-61
2022/04/29 10:12:22;;;;;;;6.47;4.30;;;19.50;65.20;;;18.71;40.65;98071.41;5034937;28;20028;-61
2022/04/29 10:14:51;;;;;;;;;;;19.20;69.90;;;18.63;40.37;98066.53;5027231;28;20673;-61
2022/04/29 10:22:54;;;;;;;6.53;4.05;;;18.90;69.00;;;18.50;38.27;98058.41;5036559;28;20044;-60
2022/04/29 10:25:24;;;;;;;5.00;3.63;;;19.00;68.60;;;18.42;39.04;98059.78;5035537;28;20455;-61
2022/04/29 10:27:51;;;;;;;6.78;4.00;;;18.90;68.90;;;18.29;38.95;98059.66;5036192;28;20043;-60
2022/04/29 10:30:34;;;;;;;6.63;4.25;;;18.80;70.20;;;18.18;39.55;98051.38;5030146;28;23480;-61
2022/04/29 10:33:06;;;;;;;4.80;3.88;;;18.70;69.00;;;18.10;38.75;98060.69;5038623;28;20384;-61
2022/04/29 10:35:49;;;;;;;4.90;3.92;;;18.70;69.50;;;18.00;38.07;98055.94;5018311;28;20094;-61
2022/04/29 10:38:34;;;;;;;5.75;3.88;;;18.60;68.30;;;17.96;37.62;98046.41;5039019;28;20037;-61
2022/04/29 10:41:20;;;;;;;7.45;3.47;;;18.50;67.20;;;18.13;38.87;98041.81;5032876;28;20037;-61
2022/04/29 10:43:51;;;;;;;4.32;3.00;;;18.60;69.30;;;18.26;38.54;98049.13;5032316;28;20106;-60
2022/04/29 10:46:30;;;;;;;3.80;3.40;;;18.70;67.90;;;18.55;37.40;98049.25;5028929;28;20037;-61
2022/04/29 10:48:56;;;;;;;4.95;3.03;;;18.80;67.60;;;18.60;36.30;98041.81;5033528;28;20040;-59
2022/04/29 10:51:27;;;;;;;5.50;3.08;;;18.90;64.90;;;18.60;36.71;98042.66;5030011;22;20060;-41